Terminal Aerodrome Forecast
Issued by NWS

Home | Current Version | Previous Version | Text Only | Print | Product List | Glossary On
Versions: 1 2 3 4 5 6 7 8 9 10 11 12
000
FTUS45 KPSR 022320
TAFSDL
TAF
KSDL 022320Z 0300/0324 26004KT P6SM BKN100 OVC140
      TEMPO 0301/0305 VRB03KT
     FM030600 04005KT P6SM FEW100 SCT140 BKN200
     FM031700 02008KT P6SM FEW070 SCT110=

USA.gov is the U.S. government's official web portal to all federal, state and local government web resources and services.